Irving North's Hourly Summary for Friday, July 6, 2018
Hour Temp
(f)
RH
(%)
Solar Rad.
(MJ/m2)
Rainfall
(in)
Wind
(mph)
7/6/2018 12:00 AM 85 59 0 0 4.18
7/6/2018 1:00 AM 85 59 0 0 3.23
7/6/2018 2:00 AM 83 61 0 0 2.78
7/6/2018 3:00 AM 82 65 0 0 2.33
7/6/2018 4:00 AM 81 70 0 0 2.58
7/6/2018 5:00 AM 80 76 0 0 3.15
7/6/2018 6:00 AM 79 77 0.05 0 3.93
7/6/2018 7:00 AM 80 71 0.48 0 4.57
7/6/2018 8:00 AM 82 65 1.1 0 4.25
7/6/2018 9:00 AM 86 57 1.71 0 4.14
7/6/2018 10:00 AM 89 50 2.2 0 4.22
7/6/2018 11:00 AM 90 45 2.46 0 5.58
7/6/2018 12:00 PM 92 41 2.8 0 6.94
7/6/2018 1:00 PM 93 37 3.18 0 6.26
7/6/2018 2:00 PM 93 37 1.74 0 6.37
7/6/2018 3:00 PM 91 38 2.31 0 7.91
7/6/2018 4:00 PM 83 53 0.26 0 5.89
7/6/2018 5:00 PM 84 54 0.55 0 4.8
7/6/2018 6:00 PM 86 51 0.86 0 5.19
7/6/2018 7:00 PM 86 52 0.29 0 3.54
7/6/2018 8:00 PM 85 53 0.03 0 5.96
7/6/2018 9:00 PM 83 59 0 0 5.64
7/6/2018 10:00 PM 82 65 0 0 4.13
7/6/2018 11:00 PM 82 63 0 0 4.43
Data Summary 85 56 20.02 0.00 4.67